Time;durP1;ratioP1;P1;durP2;ratioP2;P2;SDS_P1;SDS_P2;PMS_P1;PMS_P2;Temp;Humidity;BMP_temperature;BMP_pressure;BME280_temperature;BME280_humidity;BME280_pressure;Samples;Min_cycle;Max_cycle;Signal;HPM_P1;HPM_P2
2022/06/14 00:01:42;;;;;;;4.95;2.78;;;10.70;99.90;;;;;;5112937;28;20200;-79
2022/06/14 00:04:08;;;;;;;5.85;3.10;;;10.70;99.90;;;;;;5112718;28;20172;-79
2022/06/14 00:06:34;;;;;;;4.40;3.15;;;10.70;99.90;;;;;;5112598;28;20541;-79
2022/06/14 00:08:59;;;;;;;3.90;3.10;;;10.70;99.90;;;;;;5113647;28;20174;-79
2022/06/14 00:11:29;;;;;;;4.00;3.10;;;10.60;99.90;;;;;;5112622;28;20277;-79
2022/06/14 00:13:57;;;;;;;3.75;2.95;;;10.60;99.90;;;;;;5113912;28;20554;-79
2022/06/14 00:16:24;;;;;;;5.75;2.97;;;10.50;99.90;;;;;;5116362;28;20227;-79
2022/06/14 00:18:50;;;;;;;5.95;3.00;;;10.50;99.90;;;;;;5117099;28;20180;-78
2022/06/14 00:21:17;;;;;;;4.38;3.10;;;10.50;99.90;;;;;;5117304;28;20200;-79
2022/06/14 00:23:42;;;;;;;3.58;3.10;;;10.50;99.90;;;;;;5117411;28;20177;-79
2022/06/14 00:26:11;;;;;;;4.28;3.25;;;10.50;99.90;;;;;;5116960;28;20684;-79
2022/06/14 00:28:36;;;;;;;4.35;2.90;;;10.50;99.90;;;;;;5116921;28;20259;-79
2022/06/14 00:31:16;;;;;;;5.25;3.20;;;10.60;99.90;;;;;;5116628;28;20227;-79
2022/06/14 00:33:42;;;;;;;3.95;3.05;;;10.30;99.90;;;;;;5116097;28;20217;-79
2022/06/14 00:36:18;;;;;;;5.05;3.05;;;10.10;99.90;;;;;;5116150;28;20250;-79
2022/06/14 00:38:43;;;;;;;4.43;2.97;;;10.00;99.90;;;;;;5117511;28;20189;-79
2022/06/14 00:41:38;;;;;;;3.92;3.10;;;10.00;99.90;;;;;;5115782;28;20200;-79
2022/06/14 00:44:11;;;;;;;5.55;3.00;;;10.20;99.90;;;;;;5116596;28;20589;-79
2022/06/14 00:46:55;;;;;;;4.90;2.90;;;10.30;99.90;;;;;;5116028;28;20172;-79
2022/06/14 00:52:49;;;;;;;5.15;3.10;;;10.30;99.90;;;;;;5117134;28;20160;-79
2022/06/14 00:55:26;;;;;;;10.95;3.55;;;10.30;99.90;;;;;;5115374;28;20195;-79
2022/06/14 00:58:08;;;;;;;8.55;3.28;;;10.10;99.90;;;;;;5116074;28;20172;-79
2022/06/14 01:00:45;;;;;;;5.40;3.22;;;10.10;99.90;;;;;;5115460;28;20176;-79
2022/06/14 01:03:22;;;;;;;8.45;3.42;;;10.10;99.90;;;;;;5115465;28;20640;-79
2022/06/14 01:06:08;;;;;;;10.80;3.28;;;10.10;99.90;;;;;;5115814;28;20196;-79
2022/06/14 01:08:59;;;;;;;5.97;2.90;;;10.20;99.90;;;;;;5115453;28;20187;-79
2022/06/14 01:11:39;;;;;;;13.23;3.35;;;10.20;99.90;;;;;;5116084;28;20176;-79
2022/06/14 01:14:08;;;;;;;11.80;3.75;;;10.20;99.90;;;;;;5116533;28;20167;-79
2022/06/14 01:16:34;;;;;;;8.18;3.70;;;10.20;99.90;;;;;;5115146;28;20187;-79
2022/06/14 01:19:00;;;;;;;6.63;3.70;;;10.10;99.90;;;;;;5115789;28;20643;-80
2022/06/14 01:21:27;;;;;;;7.03;3.70;;;10.00;99.90;;;;;;5128952;28;20294;-81
2022/06/14 01:23:52;;;;;;;6.43;3.50;;;10.00;99.90;;;;;;5128436;28;20201;-81
2022/06/14 01:26:22;;;;;;;6.35;3.22;;;10.00;99.90;;;;;;5128772;28;20238;-81
2022/06/14 01:28:57;;;;;;;5.53;3.50;;;10.00;99.90;;;;;;5128258;28;20279;-81
2022/06/14 01:31:24;;;;;;;5.30;3.30;;;10.00;99.90;;;;;;5127961;28;20217;-81
2022/06/14 01:33:56;;;;;;;11.05;3.70;;;9.90;99.90;;;;;;5128012;28;20180;-81
2022/06/14 01:36:26;;;;;;;6.55;3.50;;;9.90;99.90;;;;;;5127486;28;20216;-81
2022/06/14 01:38:53;;;;;;;6.68;3.47;;;9.90;99.90;;;;;;5128121;28;20168;-81
2022/06/14 01:41:46;;;;;;;7.75;3.70;;;9.70;99.90;;;;;;5127269;28;20295;-81
2022/06/14 01:44:24;;;;;;;3.95;3.55;;;9.70;99.90;;;;;;5126220;28;20193;-81
2022/06/14 01:47:20;;;;;;;4.93;3.75;;;9.60;99.90;;;;;;5125794;28;20243;-81
2022/06/14 01:53:06;;;;;;;4.93;3.90;;;9.40;99.90;;;;;;5127059;28;20688;-81
2022/06/14 01:55:41;;;;;;;7.05;4.07;;;9.30;99.90;;;;;;5126010;28;20206;-81
2022/06/14 01:58:28;;;;;;;6.72;3.75;;;9.20;99.90;;;;;;5125912;28;20199;-81
2022/06/14 02:01:15;;;;;;;7.47;3.45;;;9.10;99.90;;;;;;5125307;28;20661;-81
2022/06/14 02:06:50;;;;;;;6.93;3.10;;;9.20;99.90;;;;;;5126543;28;20167;-81
2022/06/14 02:09:24;;;;;;;6.28;2.95;;;9.10;99.90;;;;;;5124770;28;20203;-81
2022/06/14 02:11:50;;;;;;;4.88;3.03;;;9.20;99.90;;;;;;5124561;28;20176;-81
2022/06/14 02:14:21;;;;;;;3.60;2.88;;;9.30;99.90;;;;;;5124350;28;20733;-81
2022/06/14 02:17:09;;;;;;;7.05;2.95;;;9.30;99.90;;;;;;5125076;28;20191;-81
2022/06/14 02:19:46;;;;;;;9.70;3.38;;;9.30;99.90;;;;;;5124279;28;20169;-81
2022/06/14 02:22:16;;;;;;;4.03;3.17;;;9.30;99.90;;;;;;5123773;28;20192;-81
2022/06/14 02:24:55;;;;;;;4.93;2.70;;;9.30;99.90;;;;;;5123792;28;20192;-81
2022/06/14 02:27:35;;;;;;;6.85;3.00;;;9.30;99.90;;;;;;5123524;28;20206;-81
2022/06/14 02:30:08;;;;;;;4.55;3.00;;;9.40;99.90;;;;;;5124947;28;20294;-81
2022/06/14 02:33:05;;;;;;;6.05;2.78;;;9.30;99.90;;;;;;5123844;28;20172;-81
2022/06/14 02:35:52;;;;;;;4.97;2.97;;;9.40;99.90;;;;;;5120913;28;20220;-81
2022/06/14 02:38:27;;;;;;;4.97;3.08;;;9.20;99.90;;;;;;5122776;28;20639;-81
2022/06/14 02:41:26;;;;;;;5.75;3.17;;;9.20;99.90;;;;;;5122826;28;20172;-81
2022/06/14 02:44:22;;;;;;;7.03;3.60;;;9.20;99.90;;;;;;5122316;28;20243;-81
2022/06/14 02:46:55;;;;;;;5.68;2.83;;;9.20;99.90;;;;;;5121596;28;20203;-81
2022/06/14 02:49:30;;;;;;;8.35;3.35;;;9.10;99.90;;;;;;5122512;28;20173;-81
2022/06/14 02:52:11;;;;;;;8.27;3.58;;;8.90;99.90;;;;;;5123482;28;20156;-81
2022/06/14 02:54:53;;;;;;;3.80;3.38;;;8.80;99.90;;;;;;5121530;28;20222;-81
2022/06/14 02:57:27;;;;;;;6.28;3.55;;;8.70;99.90;;;;;;5120719;28;20172;-81
2022/06/14 03:00:04;;;;;;;5.07;3.38;;;8.70;99.90;;;;;;5121205;28;20176;-81
2022/06/14 03:02:59;;;;;;;4.85;3.00;;;8.50;99.90;;;;;;5120637;28;20290;-81
2022/06/14 03:05:35;;;;;;;13.68;3.58;;;8.60;99.90;;;;;;5116479;28;20208;-81
2022/06/14 03:08:14;;;;;;;11.73;3.40;;;8.60;99.90;;;;;;5122364;28;20176;-81
2022/06/14 03:11:03;;;;;;;10.95;3.20;;;8.70;99.90;;;;;;5121174;28;20162;-81
2022/06/14 03:13:54;;;;;;;7.93;3.17;;;8.70;99.90;;;;;;5120607;28;20177;-81
2022/06/14 03:16:33;;;;;;;5.78;2.70;;;8.80;99.90;;;;;;5119655;28;20219;-81
2022/06/14 03:19:18;;;;;;;6.28;3.05;;;8.90;99.90;;;;;;5120772;28;20167;-81
2022/06/14 03:21:52;;;;;;;3.67;2.78;;;8.90;99.90;;;;;;5121401;28;20238;-81
2022/06/14 03:24:23;;;;;;;5.28;2.90;;;8.90;99.90;;;;;;5120271;28;20164;-81
2022/06/14 03:27:15;;;;;;;7.50;2.80;;;8.90;99.90;;;;;;5120552;28;20183;-81
2022/06/14 03:30:00;;;;;;;4.38;2.80;;;9.00;99.90;;;;;;5113578;28;20195;-81
2022/06/14 03:32:50;;;;;;;5.68;2.70;;;8.80;99.90;;;;;;5118818;28;20164;-81
2022/06/14 03:35:30;;;;;;;14.93;3.28;;;8.70;99.90;;;;;;5120733;28;20215;-80
2022/06/14 03:38:00;;;;;;;10.07;3.38;;;8.80;99.90;;;;;;5119482;28;20221;-81
2022/06/14 03:40:26;;;;;;;10.52;3.33;;;8.60;99.90;;;;;;5118542;28;20172;-81
2022/06/14 03:42:52;;;;;;;12.82;3.42;;;8.70;99.90;;;;;;5120308;28;20196;-81
2022/06/14 03:45:27;;;;;;;6.63;3.40;;;8.70;99.90;;;;;;5119281;28;20188;-81
2022/06/14 03:47:53;;;;;;;12.23;3.83;;;8.70;99.90;;;;;;5120725;28;20187;-81
2022/06/14 03:50:27;;;;;;;8.10;3.55;;;8.70;99.90;;;;;;5125245;28;20176;-81
2022/06/14 03:53:32;;;;;;;13.45;3.72;;;8.70;99.90;;;;;;5122074;28;20176;-81
2022/06/14 03:56:37;;;;;;;6.65;3.13;;;8.80;99.90;;;;;;5122555;28;20196;-80
2022/06/14 03:59:15;;;;;;;10.40;3.70;;;8.70;99.90;;;;;;5110933;28;20622;-80
2022/06/14 04:01:58;;;;;;;9.38;3.70;;;8.70;99.90;;;;;;5122002;28;20219;-80
2022/06/14 04:04:52;;;;;;;10.52;3.80;;;8.80;99.90;;;;;;5121768;28;20207;-80
2022/06/14 04:07:27;;;;;;;7.43;4.07;;;8.80;99.90;;;;;;5121334;28;20165;-80
2022/06/14 04:10:08;;;;;;;14.15;4.05;;;8.80;99.90;;;;;;5121911;28;20176;-81
2022/06/14 04:13:12;;;;;;;7.63;3.95;;;8.90;99.90;;;;;;5121781;28;20172;-81
2022/06/14 04:15:42;;;;;;;11.77;4.43;;;9.00;99.90;;;;;;5120464;28;20199;-81
2022/06/14 04:18:35;;;;;;;23.55;4.38;;;9.00;99.90;;;;;;5120934;28;20179;-81
2022/06/14 04:21:24;;;;;;;19.45;4.65;;;9.00;99.90;;;;;;5120541;28;20202;-81
2022/06/14 04:24:23;;;;;;;39.63;5.95;;;9.20;99.90;;;;;;5121085;28;20161;-81
2022/06/14 04:27:14;;;;;;;35.65;6.35;;;9.30;99.90;;;;;;5120733;28;20509;-80
2022/06/14 04:29:46;;;;;;;24.67;4.88;;;9.40;99.90;;;;;;5121070;28;20164;-81
2022/06/14 04:32:37;;;;;;;27.17;4.82;;;9.40;99.90;;;;;;5120681;28;20184;-81
2022/06/14 04:35:38;;;;;;;19.80;4.30;;;9.70;99.90;;;;;;5121841;28;20196;-81
2022/06/14 04:38:15;;;;;;;35.15;4.80;;;9.90;99.90;;;;;;5113184;28;20188;-81
2022/06/14 04:41:00;;;;;;;34.58;5.60;;;10.20;99.90;;;;;;5120084;28;20172;-81
2022/06/14 04:44:15;;;;;;;51.20;6.03;;;10.20;99.90;;;;;;5120599;28;20233;-81
2022/06/14 04:46:46;;;;;;;24.25;4.60;;;10.30;99.90;;;;;;5049726;27;20182;-81
2022/06/14 04:49:33;;;;;;;12.70;4.30;;;10.40;99.90;;;;;;5120157;28;20171;-81
2022/06/14 04:52:10;;;;;;;10.38;3.83;;;10.50;99.90;;;;;;5121390;28;20198;-81
2022/06/14 04:54:53;;;;;;;10.77;4.00;;;10.60;99.90;;;;;;5122519;27;20225;-81
2022/06/14 04:57:34;;;;;;;28.67;4.85;;;10.60;99.90;;;;;;5120785;28;20168;-81
2022/06/14 05:00:13;;;;;;;22.42;4.30;;;10.70;99.90;;;;;;5119647;28;20518;-81
2022/06/14 05:02:57;;;;;;;13.30;3.55;;;11.00;99.90;;;;;;5119833;28;20199;-81
2022/06/14 05:05:38;;;;;;;7.22;3.30;;;11.20;99.90;;;;;;5119961;28;20200;-81
2022/06/14 05:08:14;;;;;;;5.25;3.30;;;11.30;99.90;;;;;;5121112;28;20177;-81
2022/06/14 05:10:58;;;;;;;8.43;3.53;;;11.50;99.90;;;;;;5120104;28;20160;-81
2022/06/14 05:13:30;;;;;;;12.90;4.47;;;11.60;99.90;;;;;;5119255;28;20190;-81
2022/06/14 05:16:06;;;;;;;17.35;4.50;;;11.70;99.90;;;;;;5121180;28;20188;-81
2022/06/14 05:18:49;;;;;;;8.52;3.58;;;11.80;99.90;;;;;;5119769;28;20198;-81
2022/06/14 05:21:32;;;;;;;6.30;3.83;;;12.00;99.90;;;;;;5121125;28;20587;-81
2022/06/14 05:23:59;;;;;;;10.25;3.83;;;12.10;99.90;;;;;;5119302;28;20176;-81
2022/06/14 05:26:43;;;;;;;9.05;3.53;;;12.00;99.90;;;;;;5119385;28;20196;-81
2022/06/14 05:29:45;;;;;;;11.40;3.90;;;12.20;99.90;;;;;;5119101;28;20177;-83
2022/06/14 05:32:18;;;;;;;11.88;4.00;;;12.40;99.90;;;;;;5121701;28;20554;-83
2022/06/14 05:35:09;;;;;;;8.57;3.42;;;12.40;99.90;;;;;;5119583;28;20224;-82
2022/06/14 05:38:07;;;;;;;12.77;4.00;;;12.50;99.90;;;;;;5118748;28;20547;-82
2022/06/14 05:40:45;;;;;;;8.60;3.80;;;12.60;99.90;;;;;;5103102;28;20214;-83
2022/06/14 05:43:26;;;;;;;4.75;3.42;;;12.80;99.90;;;;;;5119456;28;20241;-83
2022/06/14 05:46:01;;;;;;;11.05;3.67;;;12.90;99.90;;;;;;5117980;28;20696;-82
2022/06/14 05:48:43;;;;;;;12.10;3.47;;;12.90;99.90;;;;;;5117236;28;20176;-82
2022/06/14 05:51:12;;;;;;;8.07;3.60;;;13.10;99.90;;;;;;5117646;28;20199;-82
2022/06/14 05:53:58;;;;;;;12.43;4.32;;;13.40;99.90;;;;;;5120211;28;20502;-83
2022/06/14 05:56:34;;;;;;;5.57;3.63;;;13.50;99.90;;;;;;5116686;28;20255;-83
2022/06/14 05:59:09;;;;;;;5.88;3.40;;;13.70;99.90;;;;;;5116343;28;20179;-80
2022/06/14 06:01:48;;;;;;;6.85;3.70;;;13.90;99.90;;;;;;5115284;28;20207;-80
2022/06/14 06:04:24;;;;;;;10.13;3.35;;;14.00;99.90;;;;;;5115568;28;20168;-80
2022/06/14 06:07:01;;;;;;;4.90;3.00;;;14.30;99.90;;;;;;5116206;28;20176;-80
2022/06/14 06:09:51;;;;;;;9.88;3.20;;;14.60;99.90;;;;;;5117135;28;20160;-80
2022/06/14 06:12:27;;;;;;;10.40;3.17;;;15.10;99.90;;;;;;5114513;28;20180;-80
2022/06/14 06:15:37;;;;;;;4.53;2.80;;;15.40;99.90;;;;;;5115450;28;20294;-80
2022/06/14 06:18:19;;;;;;;5.68;2.88;;;15.30;99.90;;;;;;5116342;28;20280;-80
2022/06/14 06:21:08;;;;;;;4.70;2.90;;;16.60;99.90;;;;;;5116651;28;20176;-80
2022/06/14 06:24:30;;;;;;;8.88;3.00;;;17.60;99.30;;;;;;5116542;28;20168;-80
2022/06/14 06:27:09;;;;;;;5.25;2.97;;;18.80;94.60;;;;;;5117229;28;20181;-80
2022/06/14 06:30:04;;;;;;;4.75;2.67;;;19.80;87.80;;;;;;5116595;28;20179;-80
2022/06/14 06:33:01;;;;;;;5.20;2.53;;;20.20;84.10;;;;;;5116907;28;20160;-82
2022/06/14 06:35:38;;;;;;;5.50;2.60;;;20.10;81.20;;;;;;5114772;28;20204;-83
2022/06/14 06:38:19;;;;;;;7.07;2.63;;;20.60;77.40;;;;;;5114910;28;20175;-83
2022/06/14 06:43:39;;;;;;;7.00;2.58;;;20.70;73.70;;;;;;5114795;28;20160;-84
2022/06/14 06:46:10;;;;;;;7.00;2.42;;;20.50;73.60;;;;;;5113292;28;20283;-85
2022/06/14 06:48:44;;;;;;;5.85;2.55;;;20.90;72.20;;;;;;5114421;28;20172;-89
2022/06/14 06:51:16;;;;;;;4.28;2.63;;;21.10;70.10;;;;;;5114701;28;20175;-80
2022/06/14 06:53:49;;;;;;;6.50;2.78;;;20.70;69.70;;;;;;5113909;28;20173;-79
2022/06/14 06:56:21;;;;;;;8.00;2.70;;;20.60;69.10;;;;;;5114063;28;20670;-80
2022/06/14 06:58:58;;;;;;;7.63;2.53;;;20.40;71.30;;;;;;5114270;28;20278;-80
2022/06/14 07:01:27;;;;;;;7.18;2.20;;;20.00;72.50;;;;;;5114886;28;20196;-79
2022/06/14 07:04:19;;;;;;;11.82;2.75;;;19.60;73.10;;;;;;5113599;28;20173;-79
2022/06/14 07:06:53;;;;;;;8.88;2.65;;;18.90;76.20;;;;;;5113336;28;20171;-78
2022/06/14 07:09:29;;;;;;;8.05;2.40;;;18.50;77.30;;;;;;5113974;28;20196;-79
2022/06/14 07:12:27;;;;;;;6.90;2.35;;;18.60;77.80;;;;;;5113167;28;20266;-79
2022/06/14 07:15:00;;;;;;;5.82;2.13;;;18.70;78.00;;;;;;5112414;28;20325;-79
2022/06/14 07:17:50;;;;;;;3.45;2.13;;;18.30;79.70;;;;;;5112818;28;20252;-83
2022/06/14 07:23:44;;;;;;;5.88;2.42;;;18.30;76.20;;;;;;5114611;28;20168;-80
2022/06/14 07:26:13;;;;;;;5.00;2.17;;;18.50;78.50;;;;;;5113463;28;20196;-82
2022/06/14 07:29:09;;;;;;;4.72;2.33;;;18.50;77.20;;;;;;5114707;28;20197;-82
2022/06/14 07:32:03;;;;;;;7.65;2.72;;;18.60;77.20;;;;;;5113422;28;20200;-82
2022/06/14 07:34:32;;;;;;;5.93;2.30;;;18.60;76.70;;;;;;5113833;28;20640;-83
2022/06/14 07:37:02;;;;;;;6.22;2.10;;;18.70;74.00;;;;;;5112905;28;20192;-83
2022/06/14 07:39:40;;;;;;;9.00;2.22;;;18.70;74.70;;;;;;5112667;28;20176;-82
2022/06/14 07:42:24;;;;;;;3.20;2.22;;;18.80;73.80;;;;;;5112661;28;20192;-82
2022/06/14 07:44:56;;;;;;;8.25;2.42;;;18.80;73.70;;;;;;5112723;28;20287;-83
2022/06/14 07:47:40;;;;;;;8.45;2.33;;;18.90;74.10;;;;;;5112659;28;20164;-82
2022/06/14 07:50:09;;;;;;;6.50;2.28;;;19.00;70.70;;;;;;5112696;28;20165;-85
2022/06/14 07:52:45;;;;;;;2.83;1.85;;;18.90;70.80;;;;;;5115851;28;20168;-83
2022/06/14 07:55:21;;;;;;;6.53;2.22;;;18.70;70.30;;;;;;5117838;28;20227;-82
2022/06/14 07:57:53;;;;;;;4.85;1.85;;;18.50;70.60;;;;;;5116794;28;20160;-83
2022/06/14 08:06:47;;;;;;;5.88;2.03;;;18.90;68.00;;;;;;5114106;28;20617;-83
2022/06/14 08:12:52;;;;;;;2.78;1.80;;;19.00;63.80;;;;;;5113682;28;20159;-83
2022/06/14 08:15:42;;;;;;;3.67;1.65;;;19.20;64.80;;;;;;5112307;28;20198;-83
2022/06/14 08:18:19;;;;;;;3.92;1.58;;;19.30;63.90;;;;;;5112309;28;20183;-83
2022/06/14 08:20:54;;;;;;;11.32;2.42;;;19.50;63.00;;;;;;5112471;28;20239;-83
2022/06/14 08:23:26;;;;;;;6.63;2.03;;;19.70;65.20;;;;;;5113107;28;20191;-84
2022/06/14 08:25:57;;;;;;;3.90;1.70;;;19.70;61.20;;;;;;5112239;28;20302;-83
2022/06/14 08:28:33;;;;;;;12.70;2.28;;;19.90;60.20;;;;;;5112281;28;20168;-83
2022/06/14 08:31:06;;;;;;;5.65;1.77;;;19.60;59.50;;;;;;5115222;28;20164;-83
2022/06/14 08:33:42;;;;;;;8.50;2.20;;;19.50;61.60;;;;;;5123194;28;20165;-84
2022/06/14 08:36:11;;;;;;;9.95;2.10;;;19.80;61.80;;;;;;5115580;28;20716;-84
2022/06/14 08:38:44;;;;;;;11.88;2.20;;;20.00;61.50;;;;;;5117133;28;20263;-84
2022/06/14 08:41:44;;;;;;;3.28;1.85;;;20.20;60.60;;;;;;5116715;28;20164;-85
2022/06/14 08:44:18;;;;;;;6.40;2.17;;;20.30;61.20;;;;;;5116085;28;20632;-82
2022/06/14 08:47:08;;;;;;;3.15;2.13;;;20.50;61.60;;;;;;5117191;27;20156;-83
2022/06/14 08:49:50;;;;;;;3.42;1.90;;;20.50;59.10;;;;;;5115612;28;20192;-83
2022/06/14 08:52:35;;;;;;;5.13;2.05;;;20.60;59.50;;;;;;5115744;28;20638;-83
2022/06/14 08:55:10;;;;;;;3.72;1.75;;;20.70;57.30;;;;;;5115549;28;20196;-83
2022/06/14 08:58:10;;;;;;;2.42;1.60;;;20.70;56.10;;;;;;5115766;28;20172;-84
2022/06/14 09:00:54;;;;;;;4.63;1.50;;;20.40;55.10;;;;;;5117077;28;20172;-84
2022/06/14 09:03:50;;;;;;;3.35;1.90;;;20.60;53.70;;;;;;5115727;28;20196;-84
2022/06/14 09:06:37;;;;;;;1.95;1.67;;;20.60;54.20;;;;;;5116915;28;20192;-83
2022/06/14 09:09:06;;;;;;;4.95;1.92;;;20.80;55.10;;;;;;5116967;28;20160;-84
2022/06/14 09:12:19;;;;;;;3.33;1.67;;;20.90;55.20;;;;;;5115573;28;20172;-84
2022/06/14 09:15:03;;;;;;;5.15;2.00;;;21.10;55.50;;;;;;5093382;28;20208;-83
2022/06/14 09:17:49;;;;;;;7.45;2.00;;;21.00;55.00;;;;;;5117827;28;20168;-83
2022/06/14 09:20:53;;;;;;;4.75;1.67;;;21.00;52.90;;;;;;5117259;28;20255;-83
2022/06/14 09:23:30;;;;;;;4.38;1.60;;;20.70;51.90;;;;;;5101685;28;20216;-83
2022/06/14 09:26:31;;;;;;;3.38;1.60;;;20.60;51.60;;;;;;5119694;28;20227;-82
2022/06/14 09:29:28;;;;;;;3.40;1.60;;;20.60;51.50;;;;;;5108970;28;20184;-83
2022/06/14 09:32:16;;;;;;;3.08;1.90;;;20.70;51.70;;;;;;5122061;28;20165;-83
2022/06/14 09:35:07;;;;;;;12.95;2.00;;;20.40;51.70;;;;;;5121307;28;20288;-84
2022/06/14 09:38:03;;;;;;;5.43;1.42;;;20.50;52.70;;;;;;5121279;28;20180;-83
2022/06/14 09:40:55;;;;;;;5.13;1.77;;;20.50;51.50;;;;;;5118071;28;20196;-83
2022/06/14 09:43:49;;;;;;;4.03;1.55;;;20.40;51.80;;;;;;5100473;28;20226;-83
2022/06/14 09:46:49;;;;;;;2.00;1.50;;;20.40;53.00;;;;;;5115872;28;20289;-83
2022/06/14 09:49:46;;;;;;;5.10;1.60;;;20.30;52.00;;;;;;5117504;28;20222;-83
2022/06/14 09:52:34;;;;;;;3.63;1.67;;;20.70;53.60;;;;;;5116470;28;20286;-83
2022/06/14 09:55:41;;;;;;;4.75;1.67;;;21.00;53.20;;;;;;5116264;28;20193;-82
2022/06/14 09:58:50;;;;;;;3.70;1.30;;;21.10;51.30;;;;;;5117151;28;20217;-82
2022/06/14 10:01:43;;;;;;;3.95;1.52;;;21.10;50.30;;;;;;5117430;28;20165;-82
2022/06/14 10:04:33;;;;;;;2.70;1.60;;;21.20;49.90;;;;;;5116792;28;20160;-82
2022/06/14 10:07:20;;;;;;;5.15;1.80;;;21.50;49.60;;;;;;5116275;28;20635;-82
2022/06/14 10:09:51;;;;;;;3.28;1.40;;;21.30;49.90;;;;;;5116009;28;20259;-82
2022/06/14 10:12:34;;;;;;;3.90;1.35;;;21.50;49.20;;;;;;5116594;28;20209;-82
2022/06/14 10:15:13;;;;;;;2.45;1.33;;;21.50;46.30;;;;;;5116677;28;20196;-82
2022/06/14 10:18:04;;;;;;;2.88;1.40;;;21.30;45.90;;;;;;5116591;28;20272;-82
2022/06/14 10:21:07;;;;;;;3.58;1.38;;;21.40;47.10;;;;;;5117309;28;20175;-82
2022/06/14 10:23:48;;;;;;;3.80;1.50;;;21.50;47.60;;;;;;5118093;28;20203;-82
2022/06/14 10:29:41;;;;;;;5.10;1.50;;;21.70;45.70;;;;;;5115524;28;20163;-82
2022/06/14 10:32:19;;;;;;;1.60;1.30;;;21.80;46.50;;;;;;5095345;28;20185;-83
2022/06/14 10:35:13;;;;;;;5.40;1.35;;;21.30;44.60;;;;;;5113801;28;20197;-83
2022/06/14 10:37:39;;;;;;;1.88;1.42;;;21.40;46.80;;;;;;5114560;28;20192;-83
2022/06/14 10:40:39;;;;;;;3.13;1.52;;;21.40;46.40;;;;;;5113504;28;20210;-83
2022/06/14 10:43:36;;;;;;;3.20;1.52;;;21.30;46.20;;;;;;5114940;28;20204;-83
2022/06/14 10:46:10;;;;;;;2.45;1.48;;;21.30;46.40;;;;;;5113447;28;20196;-83
2022/06/14 10:49:23;;;;;;;4.10;1.52;;;21.50;46.60;;;;;;5113772;28;20251;-83
2022/06/14 10:52:14;;;;;;;4.05;1.48;;;21.60;47.10;;;;;;5114110;28;20566;-83
2022/06/14 10:55:03;;;;;;;4.43;1.60;;;21.80;46.60;;;;;;5115395;28;20196;-87
2022/06/14 10:57:53;;;;;;;5.57;1.13;;;22.10;47.90;;;;;;5112767;28;20168;-83
2022/06/14 11:00:36;;;;;;;12.10;2.03;;;22.00;45.60;;;;;;5113411;28;20169;-82
2022/06/14 11:03:20;;;;;;;4.50;1.30;;;22.10;45.50;;;;;;5113587;28;20196;-83
2022/06/14 11:05:52;;;;;;;1.90;1.20;;;22.10;46.40;;;;;;5113585;28;20195;-83
2022/06/14 11:08:40;;;;;;;4.43;1.50;;;22.10;44.40;;;;;;5124041;28;20179;-83
2022/06/14 11:11:12;;;;;;;3.30;1.42;;;22.10;43.50;;;;;;5128713;28;20161;-83
2022/06/14 11:13:47;;;;;;;3.60;1.55;;;22.20;45.50;;;;;;5128865;28;20196;-83
2022/06/14 11:16:45;;;;;;;1.75;1.30;;;22.30;44.80;;;;;;5130380;28;20203;-83
2022/06/14 11:19:58;;;;;;;2.10;1.33;;;22.20;43.00;;;;;;5128867;28;20160;-81
2022/06/14 11:22:36;;;;;;;4.00;1.48;;;22.10;44.40;;;;;;5128145;28;20192;-82
2022/06/14 11:25:23;;;;;;;7.22;1.65;;;22.00;45.30;;;;;;5117033;28;20195;-80
2022/06/14 11:28:22;;;;;;;4.35;1.45;;;22.10;46.50;;;;;;5114558;28;20530;-83
2022/06/14 11:31:03;;;;;;;3.05;1.33;;;22.20;47.10;;;;;;5112775;28;20160;-83
2022/06/14 11:33:48;;;;;;;4.60;1.40;;;22.10;46.50;;;;;;5113629;28;20569;-83
2022/06/14 11:36:25;;;;;;;3.90;1.50;;;22.10;46.40;;;;;;5112717;28;20218;-83
2022/06/14 11:39:17;;;;;;;6.90;1.40;;;22.30;47.60;;;;;;5112716;28;20623;-83
2022/06/14 11:41:46;;;;;;;3.60;1.52;;;22.40;45.50;;;;;;5112973;28;20210;-83
2022/06/14 11:44:21;;;;;;;2.72;1.50;;;22.30;45.30;;;;;;5112564;28;20668;-83
2022/06/14 11:47:09;;;;;;;3.30;1.55;;;22.40;46.40;;;;;;5113555;28;20174;-83
2022/06/14 11:50:24;;;;;;;3.13;1.40;;;22.40;46.20;;;;;;5113190;28;20255;-83
2022/06/14 11:53:24;;;;;;;1.88;1.48;;;22.30;44.90;;;;;;5113461;28;20176;-83
2022/06/14 11:56:12;;;;;;;2.58;1.48;;;22.40;46.30;;;;;;5113028;28;20682;-81
2022/06/14 11:59:14;;;;;;;1.58;1.23;;;22.30;44.00;;;;;;5113189;28;20199;-81
2022/06/14 12:01:47;;;;;;;4.40;1.30;;;22.20;45.00;;;;;;5113023;28;20195;-81
2022/06/14 12:04:25;;;;;;;4.38;1.60;;;22.20;44.60;;;;;;5113001;28;20251;-81
2022/06/14 12:07:01;;;;;;;4.63;1.45;;;22.30;44.40;;;;;;5112886;28;20266;-81
2022/06/14 12:09:49;;;;;;;4.97;1.35;;;22.30;45.00;;;;;;5118880;28;20162;-81
2022/06/14 12:12:42;;;;;;;4.45;1.50;;;22.20;45.70;;;;;;5130207;27;20247;-81
2022/06/14 12:15:22;;;;;;;2.90;1.30;;;22.40;45.50;;;;;;5129075;28;20226;-81
2022/06/14 12:17:51;;;;;;;3.78;1.52;;;22.30;45.20;;;;;;5128214;28;20187;-81
2022/06/14 12:20:23;;;;;;;1.58;1.25;;;22.50;46.20;;;;;;5121865;28;20179;-81
2022/06/14 12:23:10;;;;;;;4.07;1.55;;;22.50;44.40;;;;;;5117665;28;20203;-80
2022/06/14 12:29:06;;;;;;;5.47;1.48;;;22.60;44.20;;;;;;5118765;28;20156;-81
2022/06/14 12:32:03;;;;;;;3.30;1.58;;;22.70;44.70;;;;;;5118994;28;20168;-82
2022/06/14 12:35:07;;;;;;;4.38;1.60;;;22.90;45.30;;;;;;5121006;28;20204;-81
2022/06/14 12:37:54;;;;;;;4.30;1.50;;;22.90;43.20;;;;;;5097599;28;20196;-80
2022/06/14 12:40:50;;;;;;;9.48;1.60;;;23.00;44.20;;;;;;5122238;28;20180;-80
2022/06/14 12:43:32;;;;;;;5.45;1.58;;;23.00;45.40;;;;;;5120723;28;20223;-79
2022/06/14 12:46:15;;;;;;;10.75;1.90;;;23.10;44.20;;;;;;5120333;28;20200;-79
2022/06/14 12:49:01;;;;;;;2.95;1.60;;;23.00;44.40;;;;;;5119953;28;20172;-81
2022/06/14 12:51:52;;;;;;;3.10;1.23;;;23.10;43.60;;;;;;5122670;28;20255;-80
2022/06/14 12:54:32;;;;;;;1.45;1.35;;;23.00;42.90;;;;;;5121806;28;20169;-81
2022/06/14 12:57:26;;;;;;;1.73;1.38;;;23.00;43.70;;;;;;5121577;28;20164;-80
2022/06/14 13:00:03;;;;;;;5.45;1.60;;;23.10;43.70;;;;;;5121512;28;20233;-80
2022/06/14 13:02:47;;;;;;;2.45;1.45;;;23.10;44.80;;;;;;5120027;28;20203;-80
2022/06/14 13:05:21;;;;;;;1.52;1.30;;;23.20;43.90;;;;;;5119236;28;20594;-79
2022/06/14 13:08:29;;;;;;;2.78;1.40;;;23.20;44.70;;;;;;5118055;28;20219;-79
2022/06/14 13:11:07;;;;;;;8.48;1.70;;;23.20;43.80;;;;;;5118993;28;20183;-79
2022/06/14 13:13:56;;;;;;;5.80;1.65;;;23.20;44.10;;;;;;5120164;28;20168;-83
2022/06/14 13:16:56;;;;;;;3.17;1.60;;;23.20;44.50;;;;;;5117090;28;20686;-83
2022/06/14 13:19:33;;;;;;;2.53;1.40;;;23.10;43.80;;;;;;5116149;28;20168;-88
2022/06/14 13:22:43;;;;;;;4.45;1.77;;;23.00;43.80;;;;;;5117522;28;20199;-84
2022/06/14 13:25:57;;;;;;;5.85;1.55;;;23.10;44.40;;;;;;5116616;28;20569;-83
2022/06/14 13:28:44;;;;;;;3.63;1.60;;;23.10;44.80;;;;;;5077932;28;20591;-83
2022/06/14 13:31:37;;;;;;;1.73;1.40;;;23.20;45.00;;;;;;5077845;28;20183;-83
2022/06/14 13:34:39;;;;;;;2.53;1.25;;;23.10;44.60;;;;;;5095921;28;20249;-79
2022/06/14 13:37:29;;;;;;;1.95;1.40;;;23.00;44.20;;;;;;5078670;28;20192;-79
2022/06/14 13:40:10;;;;;;;4.10;1.55;;;23.00;43.80;;;;;;5110919;28;20184;-78
2022/06/14 13:42:41;;;;;;;5.78;1.77;;;22.80;45.00;;;;;;5115999;28;20211;-81
2022/06/14 13:45:17;;;;;;;7.30;1.52;;;22.80;46.00;;;;;;5116243;28;20305;-80
2022/06/14 13:48:00;;;;;;;2.38;1.55;;;22.90;45.90;;;;;;5118175;28;20171;-83
2022/06/14 13:50:48;;;;;;;2.25;1.50;;;22.90;45.60;;;;;;5117784;28;20183;-84
2022/06/14 13:53:34;;;;;;;5.88;1.40;;;22.80;44.60;;;;;;5117245;28;20194;-83
2022/06/14 13:56:19;;;;;;;1.52;1.38;;;22.70;43.70;;;;;;5117561;28;20689;-84
2022/06/14 13:59:22;;;;;;;3.35;1.45;;;22.60;43.90;;;;;;5118309;28;20176;-80
2022/06/14 14:02:03;;;;;;;3.35;1.30;;;22.60;44.90;;;;;;5120237;28;20200;-79
2022/06/14 14:04:56;;;;;;;2.38;1.60;;;22.80;44.90;;;;;;5124051;28;20168;-82
2022/06/14 14:07:58;;;;;;;1.50;1.40;;;22.90;45.70;;;;;;5128810;28;20164;-82
2022/06/14 14:10:47;;;;;;;2.85;1.40;;;23.00;45.40;;;;;;5117359;28;20160;-83
2022/06/14 14:13:24;;;;;;;3.17;1.40;;;23.10;44.80;;;;;;5116345;28;20176;-83
2022/06/14 14:16:09;;;;;;;2.20;1.42;;;23.10;44.10;;;;;;5116872;28;20202;-81
2022/06/14 14:18:50;;;;;;;1.58;1.48;;;23.10;44.60;;;;;;5118616;28;20160;-81
2022/06/14 14:21:33;;;;;;;1.80;1.33;;;23.10;45.40;;;;;;5116904;28;20266;-80
2022/06/14 14:24:09;;;;;;;2.30;1.33;;;23.10;43.90;;;;;;5115929;28;20164;-79
2022/06/14 14:26:40;;;;;;;8.27;1.55;;;23.00;42.80;;;;;;5117009;28;20167;-80
2022/06/14 14:29:17;;;;;;;6.68;1.38;;;23.00;42.60;;;;;;5116338;28;20164;-81
2022/06/14 14:32:07;;;;;;;3.88;1.60;;;22.90;43.00;;;;;;5115711;28;20187;-79
2022/06/14 14:34:49;;;;;;;2.55;1.42;;;22.80;42.90;;;;;;5116138;28;20681;-80
2022/06/14 14:37:24;;;;;;;2.60;1.40;;;22.80;43.00;;;;;;5115508;28;20199;-79
2022/06/14 14:39:56;;;;;;;3.53;1.30;;;22.70;43.60;;;;;;5116047;28;20164;-79